createdAt,value
2023-02-22T00:00:43.366Z,1.04
2023-02-22T00:03:25.253Z,1.01
2023-02-22T00:05:58.477Z,0.97
2023-02-22T00:08:30.846Z,0.92
2023-02-22T00:10:59.921Z,0.89
2023-02-22T00:13:31.082Z,0.86
2023-02-22T00:16:00.008Z,0.82
2023-02-22T00:18:29.046Z,0.78
2023-02-22T00:21:00.246Z,0.73
2023-02-22T00:23:29.665Z,0.69
2023-02-22T00:25:58.819Z,0.69
2023-02-22T00:28:27.255Z,0.69
2023-02-22T00:30:55.359Z,0.69
2023-02-22T00:33:23.201Z,0.69
2023-02-22T00:35:51.192Z,0.73
2023-02-22T00:38:19.216Z,0.78
2023-02-22T00:40:47.062Z,0.84
2023-02-22T00:43:15.191Z,0.90
2023-02-22T00:45:43.093Z,0.95
2023-02-22T00:48:11.150Z,0.97
2023-02-22T00:50:38.918Z,0.97
2023-02-22T00:53:07.707Z,0.99
2023-02-22T00:55:36.492Z,0.96
2023-02-22T00:58:05.482Z,0.94
2023-02-22T01:00:37.039Z,0.94
2023-02-22T01:03:06.234Z,0.97
2023-02-22T01:05:36.358Z,1.02
2023-02-22T01:08:06.633Z,1.05
2023-02-22T01:10:35.986Z,1.06
2023-02-22T01:13:09.157Z,1.06
2023-02-22T01:15:39.112Z,1.05
2023-02-22T01:18:07.495Z,1.02
2023-02-22T01:20:35.285Z,0.98
2023-02-22T01:23:06.442Z,0.93
2023-02-22T01:25:35.074Z,0.89
2023-02-22T01:28:04.115Z,0.85
2023-02-22T01:30:33.527Z,0.80
2023-02-22T01:33:02.253Z,0.75
2023-02-22T01:35:32.792Z,0.69
2023-02-22T01:38:00.745Z,0.65
2023-02-22T01:40:33.357Z,0.63
2023-02-22T01:43:02.353Z,0.61
2023-02-22T01:45:30.368Z,0.61
2023-02-22T01:48:03.123Z,0.57
2023-02-22T01:50:35.514Z,0.53
2023-02-22T01:53:04.462Z,0.48
2023-02-22T01:55:33.850Z,0.45
2023-02-22T01:58:02.536Z,0.49
2023-02-22T02:00:30.896Z,0.52
2023-02-22T02:03:01.640Z,0.55
2023-02-22T02:05:31.598Z,0.60
2023-02-22T02:08:03.550Z,0.63
2023-02-22T02:10:31.801Z,0.71
2023-02-22T02:12:59.669Z,0.80
2023-02-22T02:15:29.310Z,0.87
2023-02-22T02:18:00.630Z,0.94
2023-02-22T02:20:28.431Z,0.99
2023-02-22T02:23:12.046Z,0.99
2023-02-22T02:25:55.759Z,1.03
2023-02-22T02:28:26.499Z,1.09
2023-02-22T02:30:57.344Z,1.14
2023-02-22T02:33:25.115Z,1.18
2023-02-22T02:36:01.213Z,1.20
2023-02-22T02:38:36.057Z,1.22
2023-02-22T02:41:19.864Z,1.23
2023-02-22T02:43:48.146Z,1.26
2023-02-22T02:46:20.733Z,1.28
2023-02-22T02:48:56.655Z,1.29
2023-02-22T02:51:27.564Z,1.31
2023-02-22T02:53:55.916Z,1.32
2023-02-22T02:56:24.701Z,1.33
2023-02-22T02:58:53.361Z,1.33
2023-02-22T03:01:23.901Z,1.31
2023-02-22T03:04:03.049Z,1.27
2023-02-22T03:06:45.947Z,1.25
2023-02-22T03:09:16.783Z,1.22
2023-02-22T03:12:02.177Z,1.22
2023-02-22T03:14:33.244Z,1.19
2023-02-22T03:17:05.050Z,1.17
2023-02-22T03:19:48.822Z,1.16
2023-02-22T03:22:23.734Z,1.14
2023-02-22T03:24:58.932Z,1.11
2023-02-22T03:27:33.604Z,1.09
2023-02-22T03:30:05.952Z,1.06
2023-02-22T03:32:36.809Z,1.02
2023-02-22T03:35:13.000Z,0.95
2023-02-22T03:37:44.323Z,0.88
2023-02-22T03:40:16.320Z,0.81
2023-02-22T03:42:48.770Z,0.72
2023-02-22T03:45:19.411Z,0.62
2023-02-22T03:47:52.351Z,0.54
2023-02-22T03:50:22.838Z,0.46
2023-02-22T03:52:51.197Z,0.40
2023-02-22T03:55:24.826Z,0.35
2023-02-22T03:57:57.277Z,0.31
2023-02-22T04:00:27.439Z,0.27
2023-02-22T04:02:55.293Z,0.24
2023-02-22T04:05:24.977Z,0.23
2023-02-22T04:07:53.368Z,0.22
2023-02-22T04:10:22.446Z,0.23
2023-02-22T04:12:50.998Z,0.26
2023-02-22T04:15:20.855Z,0.30
2023-02-22T04:17:52.190Z,0.37
2023-02-22T04:20:20.181Z,0.46
2023-02-22T04:23:14.167Z,0.53
2023-02-22T04:25:42.997Z,0.58
2023-02-22T04:28:16.209Z,0.62
2023-02-22T04:30:59.893Z,0.64
2023-02-22T04:33:29.007Z,0.63
2023-02-22T04:35:57.775Z,0.58
2023-02-22T04:38:26.130Z,0.56
2023-02-22T04:40:55.494Z,0.52
2023-02-22T04:43:23.310Z,0.45
2023-02-22T04:45:53.586Z,0.35
2023-02-22T04:48:21.381Z,0.27
2023-02-22T04:50:51.125Z,0.18
2023-02-22T04:53:19.965Z,0.07
2023-02-22T04:55:47.647Z,-0.03
2023-02-22T04:58:15.431Z,-0.11
2023-02-22T05:00:43.162Z,-0.19
2023-02-22T05:03:10.892Z,-0.24
2023-02-22T05:05:38.671Z,-0.29
2023-02-22T05:08:06.504Z,-0.33
2023-02-22T05:10:34.356Z,-0.35
2023-02-22T05:13:04.042Z,-0.37
2023-02-22T05:15:32.577Z,-0.40
2023-02-22T05:18:00.385Z,-0.45
2023-02-22T05:20:33.027Z,-0.50
2023-02-22T05:23:01.505Z,-0.54
2023-02-22T05:25:29.386Z,-0.58
2023-02-22T05:27:58.942Z,-0.60
2023-02-22T05:30:28.594Z,-0.61
2023-02-22T05:32:56.574Z,-0.61
2023-02-22T05:35:24.390Z,-0.62
2023-02-22T05:37:52.271Z,-0.58
2023-02-22T05:40:21.528Z,-0.54
2023-02-22T05:42:52.639Z,-0.53
2023-02-22T05:45:21.671Z,-0.52
2023-02-22T05:47:49.995Z,-0.53
2023-02-22T05:50:19.608Z,-0.58
2023-02-22T05:52:48.695Z,-0.65
2023-02-22T05:55:18.409Z,-0.71
2023-02-22T05:57:46.730Z,-0.71
2023-02-22T06:00:16.866Z,-0.75
2023-02-22T06:02:44.679Z,-0.79
2023-02-22T06:05:12.642Z,-0.79
2023-02-22T06:07:40.492Z,-0.79
2023-02-22T06:10:08.194Z,-0.78
2023-02-22T06:12:35.930Z,-0.76
2023-02-22T06:15:03.954Z,-0.70
2023-02-22T06:17:31.693Z,-0.61
2023-02-22T06:19:59.460Z,-0.50
2023-02-22T06:22:27.422Z,-0.40
2023-02-22T06:24:55.229Z,-0.30
2023-02-22T06:27:22.967Z,-0.20
2023-02-22T06:29:50.682Z,-0.06
2023-02-22T06:32:18.475Z,0.08
2023-02-22T06:34:46.255Z,0.24
2023-02-22T06:37:14.018Z,0.42
2023-02-22T06:39:41.712Z,0.52
2023-02-22T06:42:09.493Z,0.63
2023-02-22T06:44:37.423Z,0.71
2023-02-22T06:47:09.583Z,0.78
2023-02-22T06:49:37.524Z,0.83
2023-02-22T06:52:06.525Z,0.86
2023-02-22T06:54:34.224Z,0.88
2023-02-22T06:57:01.976Z,0.91
2023-02-22T06:59:29.742Z,0.95
2023-02-22T07:01:57.572Z,1.00
2023-02-22T07:04:25.392Z,1.06
2023-02-22T07:06:53.087Z,1.13
2023-02-22T07:09:21.017Z,1.22
2023-02-22T07:11:48.891Z,1.28
2023-02-22T07:14:17.340Z,1.32
2023-02-22T07:16:45.103Z,1.35
2023-02-22T07:19:12.847Z,1.36
2023-02-22T07:21:40.628Z,1.38
2023-02-22T07:24:08.496Z,1.39
2023-02-22T07:26:40.748Z,1.38
2023-02-22T07:29:08.561Z,1.39
2023-02-22T07:31:38.670Z,1.41
2023-02-22T07:34:06.594Z,1.41
2023-02-22T07:36:34.759Z,1.41
2023-02-22T07:39:02.507Z,1.41
2023-02-22T07:41:30.277Z,1.43
2023-02-22T07:43:58.105Z,1.48
2023-02-22T07:46:26.191Z,1.55
2023-02-22T07:48:54.009Z,1.62
2023-02-22T07:51:22.284Z,1.67
2023-02-22T07:53:50.145Z,1.68
2023-02-22T07:56:18.102Z,1.68
2023-02-22T07:58:45.882Z,1.68
2023-02-22T08:01:14.302Z,1.69
2023-02-22T08:03:42.461Z,1.67
2023-02-22T08:06:10.252Z,1.68
2023-02-22T08:08:39.133Z,1.67
2023-02-22T08:11:06.950Z,1.65
2023-02-22T08:13:37.052Z,1.66
2023-02-22T08:16:05.547Z,1.65
2023-02-22T08:18:33.970Z,1.61
2023-02-22T08:21:05.241Z,1.60
2023-02-22T08:23:36.027Z,1.62
2023-02-22T08:26:08.447Z,1.66
2023-02-22T08:28:37.294Z,1.68
2023-02-22T08:31:07.709Z,1.73
2023-02-22T08:33:35.869Z,1.81
2023-02-22T08:36:03.677Z,1.90
2023-02-22T08:38:32.508Z,1.95
2023-02-22T08:41:00.217Z,2.02
2023-02-22T08:43:28.451Z,2.09
2023-02-22T08:45:57.809Z,2.14
2023-02-22T08:48:26.008Z,2.22
2023-02-22T08:50:54.868Z,2.32
2023-02-22T08:53:23.139Z,2.42
2023-02-22T08:55:51.205Z,2.50
2023-02-22T08:58:19.906Z,2.59
2023-02-22T09:00:47.766Z,2.66
2023-02-22T09:03:15.821Z,2.69
2023-02-22T09:05:45.114Z,2.72
2023-02-22T09:08:13.381Z,2.77
2023-02-22T09:10:41.201Z,2.83
2023-02-22T09:13:08.912Z,2.92
2023-02-22T09:15:36.603Z,2.98
2023-02-22T09:18:05.577Z,3.07
2023-02-22T09:20:35.755Z,3.15
2023-02-22T09:23:05.124Z,3.22
2023-02-22T09:25:37.452Z,3.28
2023-02-22T09:28:05.337Z,3.36
2023-02-22T09:30:34.080Z,3.39
2023-02-22T09:33:12.113Z,3.44
2023-02-22T09:35:46.060Z,3.50
2023-02-22T09:38:15.648Z,3.55
2023-02-22T09:40:47.602Z,3.60
2023-02-22T09:43:21.356Z,3.59
2023-02-22T09:45:49.168Z,3.61
2023-02-22T09:48:21.979Z,3.65
2023-02-22T09:50:53.634Z,3.68
2023-02-22T09:53:41.865Z,3.72
2023-02-22T09:56:19.254Z,3.74
2023-02-22T09:58:54.725Z,3.79
2023-02-22T10:01:48.877Z,3.81
2023-02-22T10:04:22.919Z,3.84
2023-02-22T10:06:52.486Z,3.88
2023-02-22T10:09:20.907Z,3.93
2023-02-22T10:12:04.767Z,3.98
2023-02-22T10:14:38.608Z,4.06
2023-02-22T10:17:09.532Z,4.18
2023-02-22T10:19:54.905Z,4.25
2023-02-22T10:22:37.562Z,4.24
2023-02-22T10:25:25.633Z,4.25
2023-02-22T10:27:53.594Z,4.27
2023-02-22T10:30:27.483Z,4.29
2023-02-22T10:33:11.212Z,4.30
2023-02-22T10:35:41.129Z,4.29
2023-02-22T10:38:16.445Z,4.30
2023-02-22T10:40:49.196Z,4.30
2023-02-22T10:43:17.633Z,4.29
2023-02-22T10:45:45.427Z,4.27
2023-02-22T10:48:15.221Z,4.32
2023-02-22T10:50:43.940Z,4.36
2023-02-22T10:53:12.260Z,4.39
2023-02-22T10:55:59.988Z,4.48
2023-02-22T10:58:28.215Z,4.55
2023-02-22T11:00:56.039Z,4.58
2023-02-22T11:03:24.353Z,4.63
2023-02-22T11:05:52.432Z,4.67
2023-02-22T11:08:23.514Z,4.68
2023-02-22T11:10:55.560Z,4.66
2023-02-22T11:13:25.859Z,4.65
2023-02-22T11:16:14.426Z,4.62
2023-02-22T11:18:43.046Z,4.60
2023-02-22T11:21:13.755Z,4.55
2023-02-22T11:23:44.732Z,4.49
2023-02-22T11:26:21.908Z,4.50
2023-02-22T11:28:50.974Z,4.54
2023-02-22T11:31:20.944Z,4.53
2023-02-22T11:33:59.958Z,4.56
2023-02-22T11:36:37.831Z,4.58
2023-02-22T11:39:11.463Z,4.53
2023-02-22T11:41:39.412Z,4.55
2023-02-22T11:44:23.683Z,4.61
2023-02-22T11:46:55.526Z,4.69
2023-02-22T11:49:24.773Z,4.79
2023-02-22T11:52:07.977Z,4.90
2023-02-22T11:54:53.113Z,4.97
2023-02-22T11:57:36.838Z,5.02
2023-02-22T12:00:12.170Z,5.02
2023-02-22T12:02:56.723Z,5.00
2023-02-22T12:05:28.669Z,5.03
2023-02-22T12:08:19.612Z,5.06
2023-02-22T12:10:55.395Z,5.08
2023-02-22T12:13:40.230Z,5.07
2023-02-22T12:16:08.339Z,5.06
2023-02-22T12:18:47.885Z,5.07
2023-02-22T12:21:19.302Z,5.05
2023-02-22T12:23:54.558Z,5.04
2023-02-22T12:26:28.785Z,5.01
2023-02-22T12:29:02.273Z,5.03
2023-02-22T12:31:36.649Z,5.01
2023-02-22T12:34:21.942Z,4.94
2023-02-22T12:36:53.808Z,4.80
2023-02-22T12:39:40.936Z,4.64
2023-02-22T12:42:18.867Z,4.44
2023-02-22T12:44:52.247Z,4.30
2023-02-22T12:47:23.073Z,4.22
2023-02-22T12:50:15.964Z,4.19
2023-02-22T12:52:53.634Z,4.11
2023-02-22T12:55:45.907Z,4.05
2023-02-22T12:58:31.232Z,3.99
2023-02-22T13:00:59.105Z,3.88
2023-02-22T13:03:36.124Z,3.76
2023-02-22T13:06:13.290Z,3.67
2023-02-22T13:08:57.005Z,3.52
2023-02-22T13:11:24.927Z,3.33
2023-02-22T13:13:54.543Z,3.26
2023-02-22T13:16:22.314Z,3.27
2023-02-22T13:18:50.458Z,3.32
2023-02-22T13:21:34.484Z,3.38
2023-02-22T13:24:16.574Z,3.42
2023-02-22T13:26:47.437Z,3.39
2023-02-22T13:29:15.372Z,3.35
2023-02-22T13:31:43.212Z,3.33
2023-02-22T13:34:30.044Z,3.27
2023-02-22T13:37:07.300Z,3.24
2023-02-22T13:39:54.615Z,3.24
2023-02-22T13:42:25.465Z,3.20
2023-02-22T13:45:09.732Z,3.17
2023-02-22T13:47:37.918Z,3.12
2023-02-22T13:50:06.289Z,3.11
2023-02-22T13:52:37.362Z,3.10
2023-02-22T13:55:11.299Z,3.05
2023-02-22T13:57:48.114Z,3.03
2023-02-22T14:00:16.004Z,3.03
2023-02-22T14:03:02.650Z,3.02
2023-02-22T14:05:37.263Z,3.05
2023-02-22T14:08:06.472Z,3.04
2023-02-22T14:10:37.732Z,2.98
2023-02-22T14:13:07.046Z,2.95
2023-02-22T14:15:35.556Z,2.93
2023-02-22T14:18:13.800Z,2.87
2023-02-22T14:20:42.968Z,2.83
2023-02-22T14:23:26.741Z,2.85
2023-02-22T14:25:55.186Z,2.87
2023-02-22T14:28:39.044Z,2.86
2023-02-22T14:31:17.455Z,2.85
2023-02-22T14:34:07.500Z,2.84
2023-02-22T14:36:52.583Z,2.80
2023-02-22T14:39:23.702Z,2.73
2023-02-22T14:41:57.404Z,2.67
2023-02-22T14:44:28.214Z,2.65
2023-02-22T14:47:02.210Z,2.63
2023-02-22T14:49:31.850Z,2.67
2023-02-22T14:52:03.827Z,2.70
2023-02-22T14:54:35.381Z,2.69
2023-02-22T14:57:14.728Z,2.67
2023-02-22T15:00:32.485Z,2.64
2023-02-22T15:03:01.184Z,2.62
2023-02-22T15:05:34.425Z,2.59
2023-02-22T15:08:03.808Z,2.56
2023-02-22T15:10:42.649Z,2.54
2023-02-22T15:13:32.807Z,2.48
2023-02-22T15:16:02.375Z,2.46
2023-02-22T15:18:33.806Z,2.47
2023-02-22T15:21:07.127Z,2.50
2023-02-22T15:23:41.608Z,2.53
2023-02-22T15:26:35.776Z,2.55
2023-02-22T15:29:24.642Z,2.57
2023-02-22T15:31:53.506Z,2.60
2023-02-22T15:34:26.928Z,2.59
2023-02-22T15:36:56.213Z,2.55
2023-02-22T15:39:26.858Z,2.55
2023-02-22T15:42:10.680Z,2.55
2023-02-22T15:44:42.324Z,2.48
2023-02-22T15:47:17.860Z,2.43
2023-02-22T15:49:46.005Z,2.40
2023-02-22T15:52:19.737Z,2.39
2023-02-22T15:54:49.229Z,2.38
2023-02-22T15:57:18.952Z,2.37
2023-02-22T15:59:49.304Z,2.38
2023-02-22T16:02:37.969Z,2.41
2023-02-22T16:05:09.244Z,2.42
2023-02-22T16:07:41.810Z,2.44
2023-02-22T16:10:21.361Z,2.44
2023-02-22T16:12:49.604Z,2.40
2023-02-22T16:15:18.571Z,2.37
2023-02-22T16:18:00.975Z,2.30
2023-02-22T16:20:30.553Z,2.24
2023-02-22T16:22:58.538Z,2.19
2023-02-22T16:25:32.620Z,2.11
2023-02-22T16:28:03.195Z,2.03
2023-02-22T16:30:33.043Z,1.99
2023-02-22T16:33:05.488Z,1.97
2023-02-22T16:35:35.409Z,1.95
2023-02-22T16:38:04.678Z,1.95
2023-02-22T16:40:35.128Z,1.95
2023-02-22T16:43:04.434Z,1.93
2023-02-22T16:45:32.791Z,1.89
2023-02-22T16:48:04.665Z,1.85
2023-02-22T16:50:32.561Z,1.86
2023-02-22T16:53:00.606Z,1.89
2023-02-22T16:55:28.538Z,1.91
2023-02-22T16:58:00.812Z,1.92
2023-02-22T17:00:31.861Z,1.96
2023-02-22T17:03:04.187Z,1.97
2023-02-22T17:05:34.900Z,1.98
2023-02-22T17:08:05.901Z,1.98
2023-02-22T17:10:34.061Z,1.96
2023-02-22T17:13:16.380Z,1.93
2023-02-22T17:15:49.698Z,1.91
2023-02-22T17:18:22.545Z,1.88
2023-02-22T17:20:54.351Z,1.84
2023-02-22T17:23:22.900Z,1.83
2023-02-22T17:25:50.615Z,1.82
2023-02-22T17:28:24.400Z,1.80
2023-02-22T17:30:53.720Z,1.75
2023-02-22T17:33:27.389Z,1.72
2023-02-22T17:35:57.612Z,1.70
2023-02-22T17:38:28.784Z,1.67
2023-02-22T17:40:57.510Z,1.62
2023-02-22T17:43:27.822Z,1.57
2023-02-22T17:45:56.513Z,1.54
2023-02-22T17:48:24.888Z,1.48
2023-02-22T17:50:53.270Z,1.44
2023-02-22T17:53:23.230Z,1.42
2023-02-22T17:55:51.409Z,1.39
2023-02-22T17:58:19.324Z,1.35
2023-02-22T18:00:48.831Z,1.33
2023-02-22T18:03:21.520Z,1.35
2023-02-22T18:05:50.729Z,1.38
2023-02-22T18:08:19.042Z,1.42
2023-02-22T18:10:47.098Z,1.47
2023-02-22T18:13:17.755Z,1.49
2023-02-22T18:15:46.607Z,1.49
2023-02-22T18:18:16.144Z,1.50
2023-02-22T18:20:46.252Z,1.53
2023-02-22T18:23:16.093Z,1.56
2023-02-22T18:26:07.720Z,1.54
2023-02-22T18:28:37.651Z,1.50
2023-02-22T18:31:09.470Z,1.47
2023-02-22T18:33:37.488Z,1.45
2023-02-22T18:36:05.580Z,1.45
2023-02-22T18:38:33.338Z,1.44
2023-02-22T18:41:04.981Z,1.40
2023-02-22T18:43:36.467Z,1.36
2023-02-22T18:46:14.234Z,1.31
2023-02-22T18:48:42.142Z,1.30
2023-02-22T18:51:11.723Z,1.28
2023-02-22T18:53:41.027Z,1.27
2023-02-22T18:56:11.185Z,1.25
2023-02-22T18:58:39.071Z,1.25
2023-02-22T19:01:07.489Z,1.26
2023-02-22T19:03:38.507Z,1.26
2023-02-22T19:06:10.623Z,1.27
2023-02-22T19:08:39.375Z,1.28
2023-02-22T19:11:08.600Z,1.30
2023-02-22T19:13:36.836Z,1.32
2023-02-22T19:16:07.079Z,1.32
2023-02-22T19:18:35.076Z,1.30
2023-02-22T19:21:04.411Z,1.27
2023-02-22T19:23:34.492Z,1.24
2023-02-22T19:26:04.269Z,1.21
2023-02-22T19:28:35.095Z,1.19
2023-02-22T19:31:19.686Z,1.21
2023-02-22T19:33:51.233Z,1.23
2023-02-22T19:36:20.479Z,1.24
2023-02-22T19:38:48.683Z,1.23
2023-02-22T19:41:18.367Z,1.25
2023-02-22T19:43:47.320Z,1.28
2023-02-22T19:46:17.749Z,1.31
2023-02-22T19:48:45.853Z,1.33
2023-02-22T19:51:14.991Z,1.33
2023-02-22T19:53:43.461Z,1.31
2023-02-22T19:56:16.199Z,1.24
2023-02-22T19:58:44.788Z,1.18
2023-02-22T20:01:13.172Z,1.13
2023-02-22T20:03:42.383Z,1.10
2023-02-22T20:06:11.101Z,1.07
2023-02-22T20:08:41.900Z,1.01
2023-02-22T20:11:10.850Z,0.97
2023-02-22T20:13:39.018Z,0.93
2023-02-22T20:16:07.962Z,0.91
2023-02-22T20:18:36.729Z,0.87
2023-02-22T20:21:08.451Z,0.82
2023-02-22T20:23:36.507Z,0.78
2023-02-22T20:26:04.381Z,0.74
2023-02-22T20:28:34.096Z,0.71
2023-02-22T20:31:01.801Z,0.70
2023-02-22T20:33:29.760Z,0.68
2023-02-22T20:35:57.684Z,0.65
2023-02-22T20:38:25.419Z,0.62
2023-02-22T20:40:53.143Z,0.61
2023-02-22T20:43:21.091Z,0.61
2023-02-22T20:45:48.878Z,0.62
2023-02-22T20:48:16.617Z,0.64
2023-02-22T20:50:44.442Z,0.68
2023-02-22T20:53:12.200Z,0.69
2023-02-22T20:55:48.029Z,0.69
2023-02-22T20:58:16.019Z,0.69
2023-02-22T21:00:43.747Z,0.68
2023-02-22T21:03:11.568Z,0.70
2023-02-22T21:05:43.733Z,0.72
2023-02-22T21:08:12.290Z,0.72
2023-02-22T21:10:41.467Z,0.68
2023-02-22T21:13:11.541Z,0.64
2023-02-22T21:15:43.536Z,0.56
2023-02-22T21:18:11.304Z,0.51
2023-02-22T21:20:41.021Z,0.48
2023-02-22T21:23:10.948Z,0.46
2023-02-22T21:25:38.655Z,0.44
2023-02-22T21:28:06.334Z,0.44
2023-02-22T21:30:34.191Z,0.41
2023-02-22T21:33:02.092Z,0.40
2023-02-22T21:35:30.610Z,0.35
2023-02-22T21:37:58.329Z,0.30
2023-02-22T21:40:27.283Z,0.21
2023-02-22T21:42:55.114Z,0.12
2023-02-22T21:45:22.814Z,0.05
2023-02-22T21:47:54.448Z,-0.04
2023-02-22T21:50:25.384Z,-0.13
2023-02-22T21:52:53.169Z,-0.18
2023-02-22T21:55:20.942Z,-0.22
2023-02-22T21:57:48.649Z,-0.26
2023-02-22T22:00:29.332Z,-0.29
2023-02-22T22:02:59.224Z,-0.34
2023-02-22T22:05:33.811Z,-0.37
2023-02-22T22:08:01.853Z,-0.43
2023-02-22T22:10:32.900Z,-0.47
2023-02-22T22:13:00.769Z,-0.51
2023-02-22T22:15:30.293Z,-0.55
2023-02-22T22:18:05.333Z,-0.60
2023-02-22T22:20:33.388Z,-0.66
2023-02-22T22:23:01.107Z,-0.71
2023-02-22T22:25:29.741Z,-0.75
2023-02-22T22:27:57.698Z,-0.81
2023-02-22T22:30:25.709Z,-0.86
2023-02-22T22:32:53.539Z,-0.90
2023-02-22T22:35:22.139Z,-0.95
2023-02-22T22:37:51.139Z,-0.99
2023-02-22T22:40:19.004Z,-1.04
2023-02-22T22:42:47.156Z,-1.08
2023-02-22T22:45:17.983Z,-1.15
2023-02-22T22:47:46.305Z,-1.20
2023-02-22T22:50:15.129Z,-1.28
2023-02-22T22:52:42.890Z,-1.33
2023-02-22T22:55:11.818Z,-1.36
2023-02-22T22:57:40.497Z,-1.38
2023-02-22T23:00:26.285Z,-1.39
2023-02-22T23:02:57.160Z,-1.39
2023-02-22T23:05:25.842Z,-1.36
2023-02-22T23:07:56.138Z,-1.32
2023-02-22T23:10:27.105Z,-1.31
2023-02-22T23:12:56.381Z,-1.30
2023-02-22T23:15:24.735Z,-1.32
2023-02-22T23:17:56.063Z,-1.35
2023-02-22T23:20:26.269Z,-1.39
2023-02-22T23:22:55.125Z,-1.42
2023-02-22T23:25:22.887Z,-1.46
2023-02-22T23:27:50.974Z,-1.50
2023-02-22T23:30:18.882Z,-1.55
2023-02-22T23:32:47.008Z,-1.59
2023-02-22T23:35:15.568Z,-1.64
2023-02-22T23:37:46.129Z,-1.67
2023-02-22T23:40:18.054Z,-1.70
2023-02-22T23:42:47.911Z,-1.73
2023-02-22T23:45:22.574Z,-1.75
2023-02-22T23:47:54.790Z,-1.77
2023-02-22T23:50:24.509Z,-1.80
2023-02-22T23:52:59.507Z,-1.82
2023-02-22T23:55:28.449Z,-1.83
2023-02-22T23:57:59.380Z,-1.86
